Reza Mohammadi

Recruteur en chef - Esteghlal
3 Déc 2028
Dimanche
Processus

Personnalité

Adaptabilité (17) Ambition (11) Controverse (14) Loyauté (6) Pression (9) Professionnalisme (1) Sportivité (10) Tempérament (2)

Profil

Style d'entraînement Démocratique
Diplôme Continental C
Détermination 6
Gestion des joueurs 8
Motivation 4
Discipline 12
Satisfaction professionnelle
100%
Fatigue
0%
Rôle Recruteur en chef
Salaire 95.8K p/s
Contrat 14.03.2029

Performance

Comportement Bon
Efficacité de l'entraînement
40%
Développement des joueurs
25%
Prévention des blessures
40%
Mise en place tactique
65%

Événements récents

A participé à une réunion de recrutement 7j
A recommandé une cible de transfert 7j
A participé à une réunion de recrutement 14j
A recommandé une cible de transfert 14j
A participé à une réunion de recrutement 21j
A recommandé une cible de transfert 21j
A participé à une réunion de recrutement 28j
A recommandé une cible de transfert 28j

Suivi en cours

290
Joueur Club Statut Capacité Confiance Observé Dernière observation Dernier vote
Marcelo Jorquera Sepahan Actif 105 / 96 79% 1 07.08.2028 Approuver
Álvaro Busso Vélez Actif 118 / 112 40% 1 01.08.2028 -
Bark Abdramane AS PSI Actif 91 / 89 40% 1 01.08.2028 -
Mohammad Mehdi Mohebi Persepolis Perdu 127 / 113 79% 1 31.07.2028 -
Aref Haji Eydi Sepahan Perdu 111 / 114 79% 1 10.07.2028 -
Jan Bürger Northampton Town Actif 126 / 137 40% 2 26.06.2028 -
Josh Nichols Oldham Athletic Actif 126 / 134 40% 12 26.06.2028 -
Mehdi Noorafkan Padideh Actif 91 / 98 40% 1 26.06.2028 -
Honest Ahanor Atalanta Actif 135 / 148 40% 6 12.06.2028 -
Giovanni Leoni Lincoln City Refusé 143 / 155 40% 2 12.06.2028 Plus d'infos
Tyler Fletcher Rotherham United Actif 113 / 112 40% 9 06.06.2028 -
Morteza Torabi Malavan Négociation 100 / 117 40% 1 06.06.2028 -
Bernardo Lima Porto Actif 110 / 122 40% 2 31.05.2028 -
Ibrahim Fullah Charlton Athletic Actif 123 / 135 40% 9 30.05.2028 -
Ryan McAidoo Oldham Athletic Actif 121 / 132 40% 11 30.05.2028 -
Gabriel Mec Feirense Actif 132 / 140 40% 7 29.05.2028 -
Jake Evans Crewe Alexandra Actif 112 / 128 40% 7 28.05.2028 -
Ben Broggio Mansfield Town Actif 113 / 123 40% 7 28.05.2028 -
Leo Pecover Swindon Town Actif 100 / 117 40% 8 28.05.2028 -
Oskar Pietuszewski Estrela da Amadora Actif 130 / 126 40% 5 27.05.2028 -
Alphadjo Cissé Lecce Actif 135 / 131 40% 3 27.05.2028 -
Ryan Kavuma-McQueen Accrington Stanley Actif 117 / 125 40% 10 25.05.2028 -
Kerim Alajbegović Modena Actif 133 / 135 40% 3 24.05.2028 -
Shea Lacey Crystal Palace Actif 137 / 141 40% 3 24.05.2028 -
Jorthy Mokio ADO Den Haag Actif 132 / 139 40% 1 24.05.2028 -
Simone Suppa Virtus Verona Actif 87 / 84 40% 1 21.05.2028 -
Babis Kostoulas Oxford United Actif 142 / 142 40% 7 20.05.2028 -
Eli Junior Kroupi Bournemouth Actif 143 / 160 40% 17 20.05.2028 -
Christos Mouzakitis Hull City Actif 139 / 135 40% 4 19.05.2028 -
Rio Ngumoha Plymouth Argyle Actif 138 / 141 40% 5 19.05.2028 -
Andrea Cogoni Cosenza Actif 110 / 109 40% 1 18.05.2028 -
Luca Williams-Barnett Walsall Actif 123 / 135 40% 8 15.05.2028 -
Igor Tyjon Barrow AFC Actif 118 / 127 40% 10 13.05.2028 -
Fletcher Boyd Accrington Stanley Actif 100 / 104 40% 1 11.05.2028 -
Siyabonga Mabena Bidvest Wits Actif 122 / 129 40% 19 08.05.2028 -
Luca Meirelles Kudrivka Actif 126 / 138 40% 8 05.05.2028 -
Amin Nabizada Exeter City Actif 111 / 116 40% 4 02.05.2028 -
Romelle Donovan Brentford Actif 129 / 139 40% 2 02.05.2028 -
Oscar Schwartau Norwich City Actif 129 / 133 40% 2 30.04.2028 -
Daniel Banjaqui Benfica Actif 127 / 127 40% 1 28.04.2028 -
Gabe Forsyth Colchester United Actif 108 / 108 40% 5 24.04.2028 -
André Miranda Porto Actif 115 / 127 40% 3 23.04.2028 -
Omar Khedr Gillingham Actif 110 / 118 40% 4 20.04.2028 -
Josh Acheampong Everton Actif 139 / 152 40% 4 16.04.2028 -
Henrique Carmo Sochi Actif 123 / 125 40% 2 06.04.2028 -
Trey Nyoni Rotherham United Actif 133 / 148 40% 3 22.03.2028 -
Nana Nuhu WAFA Actif 96 / 110 40% 3 19.03.2028 -
Alejo Antilef Saipa Refusé 122 / 127 72% 1 17.01.2028 Refuser
Tiziano Delias Sarmiento Actif 101 / 87 40% 2 01.01.2028 -
Nikita Dovnar Niva Actif 71 / 100 40% 1 01.01.2028 -
Jayden Danns Bradford City Actif 137 / 145 40% 3 30.12.2027 -
Joshua Ajala Walsall Actif 96 / 111 40% 1 30.12.2027 -
Stanley Amon Bayelsa United Actif 93 / 101 40% 3 29.12.2027 -
Facundo Rodríguez Talleres Actif 87 / 111 40% 1 29.12.2027 -
Dylan Cabral Arsenal Actif 112 / 124 40% 11 28.12.2027 -
Artur Kozyrev Volna Actif 93 / 88 40% 2 27.12.2027 -
Maren Kefas Plateau United Actif 90 / 88 40% 12 25.12.2027 -
Luighi Palmeiras Actif 115 / 107 40% 6 25.12.2027 -
Dániel Pintér Inter Miami CF Actif 87 / 111 40% 5 23.12.2027 -
Abolfazl Zadehattar Saipa Actif 115 / 125 40% 1 21.12.2027 -
Luka Andrade Montevideo City Torque Actif 106 / 102 40% 11 19.12.2027 -
Rafael Moreno Atletico Venezuela Actif 118 / 97 40% 7 15.12.2027 -
Julian Hall Real Salt Lake Actif 94 / 98 40% 3 15.12.2027 -
Sindre Walle Egeli Udinese Actif 140 / 143 40% 1 14.12.2027 -
Ruben Ramos LA Galaxy Actif 99 / 93 40% 8 12.12.2027 -
Daniel Johan Skaarud Sandefjord Actif 113 / 122 40% 4 10.12.2027 -
Senny Mayulu Paris Saint-Germain Actif 151 / 143 40% 1 07.12.2027 -
Julián Bragado Morón Actif 84 / 97 40% 2 06.12.2027 -
Joseph Abah Remo Stars Actif 81 / 99 40% 3 06.12.2027 -
Idris Ajiya Nasarawa United Actif 79 / 93 40% 4 04.12.2027 -
Tiago Pucciarelli IF Elfsborg Actif 107 / 87 40% 4 04.12.2027 -
Omar Bautista Gerez Central Córdoba SdE Actif 86 / 84 40% 2 30.11.2027 -
Ramiro Buratti River Plate Actif 85 / 98 40% 1 27.11.2027 -
Jack Wint Sibenik Actif 108 / 95 40% 1 27.11.2027 -
Juan Rodríguez Cerro Largo Actif 86 / 119 40% 2 25.11.2027 -
Amaury Morales Leon Actif 121 / 116 40% 2 23.11.2027 -
Elion Krosa Odd Actif 97 / 106 40% 1 18.11.2027 -
Kevin Filling AIK Actif 105 / 131 40% 1 17.11.2027 -
Yegor Koshkin Pobeda Actif 82 / 87 40% 1 16.11.2027 -
Emiliano Zacca Deportivo Riestra Actif 95 / 97 40% 2 15.11.2027 -
Tobías Pantoja Central Norte Actif 91 / 109 40% 1 15.11.2027 -
Martín Almeida Montevideo City Torque Actif 98 / 101 40% 1 15.11.2027 -
Hassan Beja AFC Leopards Actif 96 / 103 40% 5 12.11.2027 -
Mateus Mané Burnley Actif 138 / 150 40% 1 12.11.2027 -
Luis Yanes Real Cartagena Actif 102 / 92 40% 1 06.11.2027 -
Miloš Luković RC Strasbourg Actif 126 / 135 40% 2 05.11.2027 -
Naphtali Mokoena Bloemfontein Celtic Actif 95 / 123 40% 1 05.11.2027 -
Alex Verón Vélez Actif 124 / 122 40% 2 10.10.2027 -
Nicolás Barros Schelotto Gimnasia La Plata Actif 111 / 143 40% 2 10.10.2027 -
Mateo Peralta Danubio Actif 109 / 130 40% 2 09.10.2027 -
Matias Siltanen Malmo FF Actif 114 / 149 40% 2 09.10.2027 -
Giovanni Baroni Talleres Actif 118 / 115 40% 1 08.10.2027 -
Ben Gannon Doak Charlton Athletic Actif 151 / 161 40% 2 07.10.2027 -
Abubakar Garba Nasarawa United Actif 93 / 93 40% 6 06.10.2027 -
Mustapha Umar Kano Pillars Actif 92 / 82 40% 1 06.10.2027 -
Wisdom Udom Bendel Insurance Actif 89 / 97 40% 1 05.10.2027 -
Joel Ezra Enyimba Actif 89 / 94 40% 2 03.10.2027 -
Emmanuel Ndubueze Shooting Stars Actif 91 / 108 40% 5 02.10.2027 -
Jeremías Merlo Gimnasia La Plata Actif 131 / 129 40% 2 01.10.2027 -
Abdoulaye Allamine Stars Jeunes Talents Actif 76 / 81 40% 1 01.10.2027 -
Alex Amaefula Kun Khalifat Actif 84 / 76 40% 3 29.09.2027 -
Nupe Godstime Bayelsa United Actif 83 / 86 40% 3 29.09.2027 -
Abdulrahman Hamisu Niger Tornadoes Actif 89 / 92 40% 1 28.09.2027 -
Didier Dawson Envigado Actif 108 / 106 40% 1 27.09.2027 -
Matías Arias Vélez Actif 115 / 112 40% 3 18.09.2027 -
Victor Hernandez Santa Fe Actif 114 / 142 40% 1 18.09.2027 -
Chimobi Igwilo Rangers International Actif 83 / 93 40% 1 14.09.2027 -
Lucas Camejo River Plate Actif 86 / 91 40% 1 13.09.2027 -
David Eke Enyimba Actif 85 / 103 40% 1 07.09.2027 -
Wandile Duba ASO Chlef Actif 100 / 91 40% 1 30.08.2027 -
Kamaldeen Essien Liberty Professionals Actif 116 / 123 40% 1 30.08.2027 -
Alejo Dramisino Atlanta Actif 110 / 121 40% 1 24.08.2027 -
Mitchel Bakker Modena Actif 139 / 126 40% 1 17.08.2027 -
Thierry Rendall Correia Venezia Actif 141 / 139 40% 1 16.08.2027 -
Martin Baturina Como Actif 148 / 145 40% 1 16.08.2027 -
Sascha Britschgi AC Milan Actif 125 / 120 40% 1 15.08.2027 -
Pedro de la Vega Columbus Crew Actif 142 / 143 40% 1 10.08.2027 -
Ryoya Morishita Blackburn Rovers Actif 126 / 123 40% 3 09.08.2027 -
Malik Mothersille Stockport County Actif 123 / 116 40% 2 09.08.2027 -
Finn Azaz Southampton Actif 131 / 130 40% 1 09.08.2027 -
Daniel Kyerewaa Reading Actif 126 / 123 40% 2 08.08.2027 -
Callum O'Hare Sheffield United Actif 130 / 137 40% 1 08.08.2027 -
Brooke Norton-Cuffy Hull City Actif 146 / 136 40% 3 07.08.2027 -
Harry Wilson Leeds United Actif 154 / 139 40% 1 07.08.2027 -
Joe Gelhardt Hull City Actif 141 / 139 40% 1 06.08.2027 -
Tatsuhiro Sakamoto Coventry City Actif 126 / 140 40% 1 06.08.2027 -
Max Bird Birmingham Actif 142 / 128 40% 11 05.08.2027 -
Cian Ashford Cardiff City Actif 125 / 133 40% 1 05.08.2027 -
Isaiah Jones Luton Town Actif 124 / 134 40% 1 04.08.2027 -
Giacomo Raspadori Atalanta Actif 147 / 147 40% 1 04.08.2027 -
Samuel Edozie Southampton Actif 136 / 119 40% 3 03.08.2027 -
Ali Ahmed Norwich City Actif 125 / 128 40% 1 03.08.2027 -
Marcus McGuane Huddersfield Town Actif 125 / 132 40% 3 02.08.2027 -
Radinio Balker Huddersfield Town Actif 127 / 120 40% 5 02.08.2027 -
Ethan Williams Peterborough United Actif 119 / 122 40% 2 02.08.2027 -
Hector Kyprianou Watford Actif 123 / 121 40% 2 02.08.2027 -
Stevan Manuel Benfica Actif 97 / 107 40% 1 02.08.2027 -
Harry Clarke Preston Actif 134 / 135 40% 5 01.08.2027 -
Hidemasa Morita Hull City Actif 144 / 154 40% 9 31.07.2027 -
Bosun Lawal Stoke City Actif 132 / 128 40% 4 31.07.2027 -
Max Conway Bolton Wanderers Actif 126 / 115 40% 1 31.07.2027 -
Tyrese Campbell Sheffield United Actif 134 / 131 40% 1 31.07.2027 -
Tomáš Rigo Stoke City Actif 130 / 138 40% 1 31.07.2027 -
Scott Twine Bristol City Actif 125 / 135 40% 1 30.07.2027 -
Shea Charles Southampton Actif 141 / 135 40% 6 29.07.2027 -
Terry Devlin Portsmouth Actif 123 / 114 40% 3 29.07.2027 -
Ronnie Edwards Queens Park Rangers Actif 133 / 124 40% 1 29.07.2027 -
Lloyd Jones Charlton Athletic Actif 131 / 141 40% 1 27.07.2027 -
Jacques Ekomié Wrexham Actif 130 / 125 40% 3 26.07.2027 -
Harrison Burrows Sheffield United Actif 137 / 123 40% 2 26.07.2027 -
João Abreu Porto Actif 96 / 112 40% 1 26.07.2027 -
Calum Agius Crewe Alexandra Actif 94 / 112 40% 1 26.07.2027 -
Dennis Cirkin Queens Park Rangers Actif 135 / 130 40% 8 25.07.2027 -
Ethan Pye Stockport County Actif 126 / 124 40% 5 24.07.2027 -
Derry Murkin Derby County Actif 132 / 131 40% 3 24.07.2027 -
Matt Clarke Derby County Actif 130 / 134 40% 2 24.07.2027 -
Mikey Johnston West Bromwich Albion Actif 129 / 113 40% 1 24.07.2027 -
Jack Diamond Stockport County Actif 117 / 110 40% 1 23.07.2027 -
David Turnbull Cardiff City Actif 126 / 129 40% 1 23.07.2027 -
Luke McNally Bristol City Actif 132 / 128 40% 6 21.07.2027 -
Tariq Lamptey Queens Park Rangers Actif 138 / 125 40% 2 20.07.2027 -
Othmane Maamma Watford Actif 129 / 134 40% 2 20.07.2027 -
Nestory Irankunda Watford Actif 130 / 132 40% 1 20.07.2027 -
Asanele Bonani Chippa United Actif 103 / 84 40% 1 20.07.2027 -
Welington Southampton Actif 142 / 136 40% 5 19.07.2027 -
Andy Rinomhota Reading Actif 120 / 117 40% 4 19.07.2027 -
Chris Mepham West Bromwich Albion Actif 131 / 130 40% 2 18.07.2027 -
Araphat Mohammed Ashanti Gold Actif 102 / 107 40% 1 18.07.2027 -
Will Fish Cardiff City Actif 126 / 131 40% 1 18.07.2027 -
Ben Nelson Leicester City Actif 132 / 130 40% 1 17.07.2027 -
Aidan Morris Middlesbrough Actif 139 / 138 40% 4 15.07.2027 -
Max Johnston Derby County Actif 131 / 124 40% 6 12.07.2027 -
Alfie Gilchrist West Bromwich Albion Actif 125 / 122 40% 1 12.07.2027 -
Jack Currie Oxford United Actif 124 / 121 40% 7 07.07.2027 -
Japhet Tanganga Sheffield United Actif 141 / 135 40% 2 07.07.2027 -
Michael Baidoo Plymouth Argyle Actif 136 / 119 40% 1 06.07.2027 -
Lisandro Tejada San Martín SJ Actif 91 / 77 40% 2 21.06.2027 -
Giovanni Stellato Guidonia Montecelio Actif 84 / 100 40% 1 21.06.2027 -
Lewis Bate Stockport County Actif 130 / 120 40% 2 20.06.2027 -
Alfie Doughty Millwall Actif 124 / 123 40% 3 15.06.2027 -
Sorba Thomas Stoke City Actif 131 / 141 40% 1 31.05.2027 -
Milan van Ewijk Coventry City Actif 126 / 136 40% 3 24.05.2027 -
Toby Collyer West Bromwich Albion Actif 132 / 143 40% 4 22.05.2027 -
Perry Ng Cardiff City Actif 123 / 113 40% 1 20.05.2027 -
Dara O'Shea Ipswich Town Actif 142 / 135 40% 6 19.05.2027 -
Callum Brittain Middlesbrough Actif 128 / 135 40% 4 18.05.2027 -
Habib Diarra Sunderland Actif 139 / 153 40% 4 09.05.2027 -
Lewis Gibson Preston Actif 129 / 128 40% 2 05.05.2027 -
Florentino Luís Ipswich Town Actif 135 / 152 40% 4 03.05.2027 -
Lucas Da Cunha Como Actif 145 / 139 40% 3 03.05.2027 -
Tom Hamer Lincoln City Actif 119 / 103 40% 1 30.04.2027 -
Morgan Billiat SuperSport United Actif 134 / 100 40% 8 19.04.2027 -
Hamza Choudhury Leicester City Actif 129 / 128 40% 1 18.04.2027 -
Pelle Mattsson Norwich City Actif 125 / 133 40% 1 17.04.2027 -
Jacob Greaves Ipswich Town Actif 140 / 134 40% 5 16.04.2027 -
Azor Matusiwa Ipswich Town Actif 136 / 136 40% 4 15.04.2027 -
Oliver Skipp Leicester City Actif 136 / 140 40% 4 14.04.2027 -
Adam Randell Bristol City Actif 130 / 119 40% 2 14.04.2027 -
Brian De Keersmaecker Oxford United Actif 130 / 117 40% 1 14.04.2027 -
Joel Bagan Cardiff City Actif 120 / 110 40% 4 13.04.2027 -
Toti Wolverhampton Actif 129 / 143 40% 1 27.03.2027 -
Connor Ogilvie Grimsby Town Actif 109 / 121 40% 1 27.03.2027 -
Igor Burnley Actif 142 / 141 40% 1 26.03.2027 -
Lewis O'Brien Wrexham Actif 119 / 123 40% 1 25.03.2027 -
Marc Bola Watford Actif 126 / 130 40% 1 19.03.2027 -
Alfie Jones Middlesbrough Actif 130 / 122 40% 1 12.03.2027 -
Deano Van Rooyen SuperSport United Actif 122 / 96 40% 8 04.03.2027 -
Fawaaz Basadien Mamelodi Sundowns Actif 122 / 109 40% 1 02.03.2027 -
Tomáš Souček West Ham United Actif 132 / 140 40% 1 26.02.2027 -
Jordan Lotomba Bloemfontein Celtic Actif 124 / 115 40% 3 20.02.2027 -
Tibor Halilović Tractor Actif 122 / 110 40% 2 18.02.2027 -
Will Hughes Bloemfontein Celtic Actif 135 / 115 40% 3 18.02.2027 -
Kaveh Mohammadi Gostaresh Foulad Actif 126 / 107 40% 1 18.02.2027 -
Teboho Mokoena Mamelodi Sundowns Actif 125 / 127 40% 4 17.02.2027 -
Álvaro Medrán Al-Ettifaq Actif 127 / 115 40% 2 17.02.2027 -
João Cancelo Spartak Moscow Refusé 144 / 143 40% 4 13.02.2027 Refuser
Gedson Fernandes Spartak Moscow Actif 139 / 149 40% 1 13.02.2027 -
Leeroy Owusu Hearts of Oak Actif 111 / 109 40% 1 13.02.2027 -
Álex Centelles Levski Actif 138 / 125 40% 3 12.02.2027 -
Igor Postonjski Tractor Actif 128 / 120 40% 1 12.02.2027 -
Son Ludogorets Actif 115 / 135 40% 1 11.02.2027 -
Billy Gilmour Napoli Actif 147 / 152 40% 1 11.02.2027 -
Khuliso Mudau Mamelodi Sundowns Actif 123 / 120 40% 1 09.02.2027 -
Thalente Mbatha Orlando Pirates Actif 126 / 99 40% 1 05.02.2027 -
Milad Zakipour Tractor Actif 105 / 120 40% 2 04.02.2027 -
Aldair Faustino Levski Actif 114 / 131 40% 2 02.02.2027 -
Wilfried Kanga Al-Fateh Actif 126 / 119 40% 1 25.01.2027 -
Mohammad Hosseini Malavan Actif 120 / 128 40% 1 25.01.2027 -
Saeid Pouraliganji Rah Ahan Refusé 118 / 107 40% 1 11.01.2027 -
Amir Hossein Hosseinzadeh Tractor Actif 124 / 118 40% 4 01.01.2027 -
Bradley Zwane SuperSport United Actif 121 / 127 40% 7 31.12.2026 -
Oston O'runov Persepolis Actif 130 / 122 40% 8 31.12.2026 -
Marquinhos Spartak Moscow Actif 136 / 107 40% 2 31.12.2026 -
Steven Bergwijn Al-Ittihad Actif 146 / 158 40% 3 30.12.2026 -
Milad Yazdani Siah Jamegan Actif 125 / 117 40% 5 28.12.2026 -
Oswin Appollis Orlando Pirates Actif 112 / 136 40% 8 25.12.2026 -
Zoltan Kleinheisler Haladas Actif 95 / 85 40% 2 24.12.2026 -
Thiago Perruisset Boca Juniors Actif 88 / 92 40% 1 24.12.2026 -
Bongani Zungu Ajax Cape Town Actif 130 / 114 40% 2 19.12.2026 -
Armstrong Oko-Flex Levski Actif 116 / 127 40% 1 19.12.2026 -
Marcelo Allende Mamelodi Sundowns Actif 136 / 125 40% 6 18.12.2026 -
Oscar Al-Taawoun Actif 150 / 131 40% 2 18.12.2026 -
Ikenna Nkwazema FC Diarra Actif 73 / 88 40% 1 15.12.2026 -
Manu Morlanes Mallorca Actif 135 / 131 40% 1 15.12.2026 -
Dion Lopy Al-Ittihad Actif 121 / 143 40% 1 15.12.2026 -
Domagoj Drožđek Tractor Actif 126 / 121 40% 5 13.12.2026 -
Petar Stanić Ludogorets Actif 148 / 123 40% 1 11.12.2026 -
Lebogang Manyama SuperSport United Actif 104 / 110 40% 2 04.12.2026 -
Mandla Kekana Ajax Cape Town Actif 108 / 110 40% 1 04.12.2026 -
Marko Grujić Levski Actif 130 / 117 40% 1 04.12.2026 -
Odiljon Hamrobekov Tractor Actif 122 / 113 40% 2 30.11.2026 -
Douglas Augusto Krasnodar Actif 142 / 140 40% 1 30.11.2026 -
Edu Expósito Espanyol Actif 139 / 128 40% 6 25.11.2026 -
Alexandr Chernikov Krasnodar Actif 132 / 153 40% 1 23.11.2026 -
Óscar Al-Diriyah Actif 127 / 129 40% 1 22.11.2026 -
Reda Khadra Qarabag Actif 132 / 149 40% 3 12.11.2026 -
Lucas Souto Defensa y Justicia Actif 121 / 107 40% 2 09.11.2026 -
Jakub Badžgoň MSK Zilina Actif 93 / 109 40% 1 06.11.2026 -
Jens Petter Hauge Bodo/Glimt Actif 131 / 142 40% 3 31.10.2026 -
Mariano Bracamonte Deportivo Riestra Actif 109 / 116 40% 1 30.10.2026 -
Lisandro Musso Central Córdoba SdE Actif 76 / 112 40% 1 20.10.2026 -
Camilo Salamanca Unión de Santa Fe Actif 91 / 94 40% 1 15.10.2026 -
Renato Ardissono San Lorenzo Actif 73 / 99 40% 1 15.10.2026 -
Favour Bala Plateau United Actif 83 / 76 40% 1 13.10.2026 -
Agustín Albrini Independiente Rivadavia Actif 93 / 119 40% 1 13.10.2026 -
Franco Cristaldo Talleres Actif 139 / 108 40% 2 09.10.2026 -
Bernard Tekpetey Ludogorets Actif 117 / 121 40% 1 04.10.2026 -
Felipe Igón Racing Club Actif 79 / 94 40% 1 04.10.2026 -
Biola Sabitu Remo Stars Actif 97 / 107 40% 1 03.10.2026 -
Luis Mateus Atletico Bucaramanga Actif 84 / 101 40% 1 29.09.2026 -
Agustín Ayala Gimnasia La Plata Actif 84 / 66 40% 1 29.09.2026 -
Brian Orosco Godoy Cruz Actif 110 / 110 40% 2 25.09.2026 -
Patrick Maswanganyi Orlando Pirates Actif 111 / 126 40% 1 24.09.2026 -
Imran Oulad Omar Dinamo Batumi Actif 128 / 100 40% 2 20.09.2026 -
Jonathan Levi Ferencvaros Actif 114 / 142 40% 1 19.09.2026 -
Matías Pellegrini Vélez Actif 126 / 137 40% 1 19.09.2026 -
Maxim De Cuyper Brighton Actif 134 / 138 40% 1 17.09.2026 -
James Wright Oxford United Actif 75 / 100 40% 1 17.09.2026 -
Jerónimo Gutiérrez Independiente Rivadavia Actif 81 / 70 40% 1 14.09.2026 -
Franco Yennerich Talleres Actif 88 / 96 40% 1 13.09.2026 -
Pedro Silva Torrejón Gimnasia La Plata Actif 122 / 140 40% 1 10.09.2026 -
Ramiro Ruiz Rodríguez Atlético Tucumán Actif 122 / 106 40% 1 09.09.2026 -
Ignacio Coscio Huracán Actif 87 / 111 40% 1 09.09.2026 -
Ezequiel Zapata Rosario Central Actif 88 / 75 40% 1 07.09.2026 -
Francisco Mongelos Sportivo Luqueno Actif 95 / 96 40% 1 07.09.2026 -
Enzo Gramajo Vélez Actif 72 / 78 40% 1 05.09.2026 -
Keanu Cupido Mamelodi Sundowns Actif 127 / 123 40% 1 31.08.2026 -
Juan Camilo Pérez Carabobo Actif 112 / 134 40% 1 19.08.2026 -
Renzo Garcés Alianza Lima Actif 109 / 105 40% 1 05.08.2026 -
Dwight McNeil Crystal Palace Actif 133 / 138 40% 1 01.08.2026 -